sensor_id;sensor_type;location;lat;lon;timestamp;P1;durP1;ratioP1;P2;durP2;ratioP2
56136;SDS011;42008;52.934;5.884;2022-10-16T00:00:31;17.27;;;2.10;;
56136;SDS011;42008;52.934;5.884;2022-10-16T00:02:57;12.27;;;2.37;;
56136;SDS011;42008;52.934;5.884;2022-10-16T00:05:23;9.50;;;2.30;;
56136;SDS011;42008;52.934;5.884;2022-10-16T00:07:49;8.73;;;1.70;;
56136;SDS011;42008;52.934;5.884;2022-10-16T00:10:14;10.07;;;2.07;;
56136;SDS011;42008;52.934;5.884;2022-10-16T00:12:40;5.57;;;1.40;;
56136;SDS011;42008;52.934;5.884;2022-10-16T00:15:06;7.60;;;1.97;;
56136;SDS011;42008;52.934;5.884;2022-10-16T00:17:32;8.47;;;1.40;;
56136;SDS011;42008;52.934;5.884;2022-10-16T00:19:57;9.33;;;1.63;;
56136;SDS011;42008;52.934;5.884;2022-10-16T00:22:23;8.03;;;1.50;;
56136;SDS011;42008;52.934;5.884;2022-10-16T00:24:48;5.60;;;1.40;;
56136;SDS011;42008;52.934;5.884;2022-10-16T00:27:14;8.10;;;1.67;;
56136;SDS011;42008;52.934;5.884;2022-10-16T00:29:40;11.37;;;1.70;;
56136;SDS011;42008;52.934;5.884;2022-10-16T00:32:06;10.00;;;2.63;;
56136;SDS011;42008;52.934;5.884;2022-10-16T00:34:31;9.27;;;1.83;;
56136;SDS011;42008;52.934;5.884;2022-10-16T00:36:57;4.87;;;1.50;;
56136;SDS011;42008;52.934;5.884;2022-10-16T00:39:22;12.97;;;1.70;;
56136;SDS011;42008;52.934;5.884;2022-10-16T00:41:48;6.23;;;1.50;;
56136;SDS011;42008;52.934;5.884;2022-10-16T00:47:09;13.03;;;2.60;;
56136;SDS011;42008;52.934;5.884;2022-10-16T00:49:37;10.33;;;1.70;;
56136;SDS011;42008;52.934;5.884;2022-10-16T00:52:03;4.07;;;1.27;;
56136;SDS011;42008;52.934;5.884;2022-10-16T00:54:30;5.97;;;1.60;;
56136;SDS011;42008;52.934;5.884;2022-10-16T00:56:58;9.87;;;1.83;;
56136;SDS011;42008;52.934;5.884;2022-10-16T00:59:30;7.57;;;2.00;;
56136;SDS011;42008;52.934;5.884;2022-10-16T01:04:24;10.83;;;1.90;;
56136;SDS011;42008;52.934;5.884;2022-10-16T01:06:53;6.10;;;1.80;;
56136;SDS011;42008;52.934;5.884;2022-10-16T01:12:14;8.80;;;1.90;;
56136;SDS011;42008;52.934;5.884;2022-10-16T01:15:01;6.65;;;1.77;;
56136;SDS011;42008;52.934;5.884;2022-10-16T01:17:45;8.87;;;1.90;;
56136;SDS011;42008;52.934;5.884;2022-10-16T01:28:34;7.70;;;2.07;;
56136;SDS011;42008;52.934;5.884;2022-10-16T01:31:04;8.10;;;2.37;;
56136;SDS011;42008;52.934;5.884;2022-10-16T01:33:35;7.33;;;2.13;;
56136;SDS011;42008;52.934;5.884;2022-10-16T01:36:12;10.53;;;1.87;;
56136;SDS011;42008;52.934;5.884;2022-10-16T01:38:40;7.07;;;2.30;;
56136;SDS011;42008;52.934;5.884;2022-10-16T01:41:19;6.13;;;2.20;;
56136;SDS011;42008;52.934;5.884;2022-10-16T01:43:46;5.83;;;1.93;;
56136;SDS011;42008;52.934;5.884;2022-10-16T01:46:15;7.60;;;1.93;;
56136;SDS011;42008;52.934;5.884;2022-10-16T01:48:43;7.60;;;2.10;;
56136;SDS011;42008;52.934;5.884;2022-10-16T01:51:11;7.73;;;1.90;;
56136;SDS011;42008;52.934;5.884;2022-10-16T01:53:39;6.07;;;2.77;;
56136;SDS011;42008;52.934;5.884;2022-10-16T01:56:07;9.27;;;2.03;;
56136;SDS011;42008;52.934;5.884;2022-10-16T01:58:38;7.77;;;2.20;;
56136;SDS011;42008;52.934;5.884;2022-10-16T02:01:08;9.57;;;2.03;;
56136;SDS011;42008;52.934;5.884;2022-10-16T02:03:37;10.23;;;2.67;;
56136;SDS011;42008;52.934;5.884;2022-10-16T02:06:06;7.07;;;2.50;;
56136;SDS011;42008;52.934;5.884;2022-10-16T02:08:32;7.47;;;2.10;;
56136;SDS011;42008;52.934;5.884;2022-10-16T02:10:58;6.97;;;2.10;;
56136;SDS011;42008;52.934;5.884;2022-10-16T02:13:28;5.30;;;2.20;;
56136;SDS011;42008;52.934;5.884;2022-10-16T02:15:57;6.97;;;2.15;;
56136;SDS011;42008;52.934;5.884;2022-10-16T02:18:23;6.43;;;2.30;;
56136;SDS011;42008;52.934;5.884;2022-10-16T02:21:01;6.90;;;1.90;;
56136;SDS011;42008;52.934;5.884;2022-10-16T02:23:45;6.50;;;2.20;;
56136;SDS011;42008;52.934;5.884;2022-10-16T02:26:27;7.43;;;2.30;;
56136;SDS011;42008;52.934;5.884;2022-10-16T02:29:15;7.13;;;2.07;;
56136;SDS011;42008;52.934;5.884;2022-10-16T02:31:45;7.70;;;2.67;;
56136;SDS011;42008;52.934;5.884;2022-10-16T02:34:15;6.70;;;2.13;;
56136;SDS011;42008;52.934;5.884;2022-10-16T02:36:43;6.50;;;2.07;;
56136;SDS011;42008;52.934;5.884;2022-10-16T02:39:10;3.93;;;1.90;;
56136;SDS011;42008;52.934;5.884;2022-10-16T02:41:37;7.30;;;2.27;;
56136;SDS011;42008;52.934;5.884;2022-10-16T02:44:03;6.37;;;1.90;;
56136;SDS011;42008;52.934;5.884;2022-10-16T02:46:28;6.70;;;1.87;;
56136;SDS011;42008;52.934;5.884;2022-10-16T02:48:54;4.50;;;1.73;;
56136;SDS011;42008;52.934;5.884;2022-10-16T02:51:19;7.50;;;1.90;;
56136;SDS011;42008;52.934;5.884;2022-10-16T02:53:45;3.23;;;1.40;;
56136;SDS011;42008;52.934;5.884;2022-10-16T02:56:11;7.17;;;1.80;;
56136;SDS011;42008;52.934;5.884;2022-10-16T02:58:36;4.47;;;1.83;;
56136;SDS011;42008;52.934;5.884;2022-10-16T03:01:02;7.57;;;1.60;;
56136;SDS011;42008;52.934;5.884;2022-10-16T03:03:28;7.13;;;1.80;;
56136;SDS011;42008;52.934;5.884;2022-10-16T03:05:53;7.13;;;1.80;;
56136;SDS011;42008;52.934;5.884;2022-10-16T03:08:19;6.40;;;2.10;;
56136;SDS011;42008;52.934;5.884;2022-10-16T03:10:48;5.20;;;1.93;;
56136;SDS011;42008;52.934;5.884;2022-10-16T03:13:14;4.57;;;1.60;;
56136;SDS011;42008;52.934;5.884;2022-10-16T03:15:40;4.43;;;1.60;;
56136;SDS011;42008;52.934;5.884;2022-10-16T03:18:05;5.70;;;1.53;;
56136;SDS011;42008;52.934;5.884;2022-10-16T03:20:31;5.67;;;1.60;;
56136;SDS011;42008;52.934;5.884;2022-10-16T03:22:56;5.87;;;1.80;;
56136;SDS011;42008;52.934;5.884;2022-10-16T03:25:22;11.53;;;2.00;;
56136;SDS011;42008;52.934;5.884;2022-10-16T03:27:47;6.63;;;1.67;;
56136;SDS011;42008;52.934;5.884;2022-10-16T03:30:13;5.97;;;1.70;;
56136;SDS011;42008;52.934;5.884;2022-10-16T03:32:39;6.70;;;2.03;;
56136;SDS011;42008;52.934;5.884;2022-10-16T03:35:04;6.73;;;1.73;;
56136;SDS011;42008;52.934;5.884;2022-10-16T03:37:30;11.90;;;2.13;;
56136;SDS011;42008;52.934;5.884;2022-10-16T03:39:56;5.47;;;1.50;;
56136;SDS011;42008;52.934;5.884;2022-10-16T03:42:21;5.07;;;1.93;;
56136;SDS011;42008;52.934;5.884;2022-10-16T03:44:47;8.83;;;2.43;;
56136;SDS011;42008;52.934;5.884;2022-10-16T03:47:13;4.57;;;1.70;;
56136;SDS011;42008;52.934;5.884;2022-10-16T03:49:38;8.23;;;1.83;;
56136;SDS011;42008;52.934;5.884;2022-10-16T03:52:04;4.33;;;1.40;;
56136;SDS011;42008;52.934;5.884;2022-10-16T03:54:29;6.13;;;1.77;;
56136;SDS011;42008;52.934;5.884;2022-10-16T03:56:55;7.90;;;1.63;;
56136;SDS011;42008;52.934;5.884;2022-10-16T03:59:20;4.37;;;1.87;;
56136;SDS011;42008;52.934;5.884;2022-10-16T04:01:46;7.87;;;2.07;;
56136;SDS011;42008;52.934;5.884;2022-10-16T04:04:12;5.07;;;2.07;;
56136;SDS011;42008;52.934;5.884;2022-10-16T04:06:37;4.80;;;1.90;;
56136;SDS011;42008;52.934;5.884;2022-10-16T04:09:03;6.70;;;1.57;;
56136;SDS011;42008;52.934;5.884;2022-10-16T04:11:29;4.43;;;1.63;;
56136;SDS011;42008;52.934;5.884;2022-10-16T04:13:54;6.00;;;1.83;;
56136;SDS011;42008;52.934;5.884;2022-10-16T04:16:21;5.57;;;1.83;;
56136;SDS011;42008;52.934;5.884;2022-10-16T04:18:46;4.17;;;1.83;;
56136;SDS011;42008;52.934;5.884;2022-10-16T04:21:12;6.57;;;2.07;;
56136;SDS011;42008;52.934;5.884;2022-10-16T04:23:38;7.90;;;2.33;;
56136;SDS011;42008;52.934;5.884;2022-10-16T04:26:04;5.97;;;2.30;;
56136;SDS011;42008;52.934;5.884;2022-10-16T04:28:30;6.53;;;2.03;;
56136;SDS011;42008;52.934;5.884;2022-10-16T04:30:55;5.50;;;2.03;;
56136;SDS011;42008;52.934;5.884;2022-10-16T04:33:21;5.57;;;2.07;;
56136;SDS011;42008;52.934;5.884;2022-10-16T04:35:47;4.97;;;2.17;;
56136;SDS011;42008;52.934;5.884;2022-10-16T04:38:12;11.03;;;2.20;;
56136;SDS011;42008;52.934;5.884;2022-10-16T04:40:38;8.73;;;2.67;;
56136;SDS011;42008;52.934;5.884;2022-10-16T04:43:03;8.40;;;2.27;;
56136;SDS011;42008;52.934;5.884;2022-10-16T04:45:29;7.07;;;2.00;;
56136;SDS011;42008;52.934;5.884;2022-10-16T04:47:56;7.83;;;2.30;;
56136;SDS011;42008;52.934;5.884;2022-10-16T04:50:23;9.27;;;2.63;;
56136;SDS011;42008;52.934;5.884;2022-10-16T04:52:48;7.03;;;2.57;;
56136;SDS011;42008;52.934;5.884;2022-10-16T04:55:14;7.47;;;2.30;;
56136;SDS011;42008;52.934;5.884;2022-10-16T04:57:40;7.47;;;2.73;;
56136;SDS011;42008;52.934;5.884;2022-10-16T05:00:06;7.90;;;2.30;;
56136;SDS011;42008;52.934;5.884;2022-10-16T05:02:33;9.90;;;2.73;;
56136;SDS011;42008;52.934;5.884;2022-10-16T05:04:58;7.80;;;2.60;;
56136;SDS011;42008;52.934;5.884;2022-10-16T05:07:24;9.53;;;2.83;;
56136;SDS011;42008;52.934;5.884;2022-10-16T05:09:50;7.47;;;2.90;;
56136;SDS011;42008;52.934;5.884;2022-10-16T05:12:16;6.73;;;2.47;;
56136;SDS011;42008;52.934;5.884;2022-10-16T05:14:41;9.63;;;2.40;;
56136;SDS011;42008;52.934;5.884;2022-10-16T05:17:07;7.80;;;2.70;;
56136;SDS011;42008;52.934;5.884;2022-10-16T05:19:32;8.53;;;2.43;;
56136;SDS011;42008;52.934;5.884;2022-10-16T05:21:58;8.87;;;2.60;;
56136;SDS011;42008;52.934;5.884;2022-10-16T05:24:24;6.87;;;2.60;;
56136;SDS011;42008;52.934;5.884;2022-10-16T05:26:49;5.57;;;2.30;;
56136;SDS011;42008;52.934;5.884;2022-10-16T05:29:15;10.13;;;2.90;;
56136;SDS011;42008;52.934;5.884;2022-10-16T05:31:41;8.13;;;2.90;;
56136;SDS011;42008;52.934;5.884;2022-10-16T05:34:06;7.57;;;2.80;;
56136;SDS011;42008;52.934;5.884;2022-10-16T05:36:32;9.90;;;2.97;;
56136;SDS011;42008;52.934;5.884;2022-10-16T05:38:57;9.40;;;2.90;;
56136;SDS011;42008;52.934;5.884;2022-10-16T05:41:23;7.57;;;2.83;;
56136;SDS011;42008;52.934;5.884;2022-10-16T05:43:51;5.33;;;2.40;;
56136;SDS011;42008;52.934;5.884;2022-10-16T05:46:16;6.73;;;2.70;;
56136;SDS011;42008;52.934;5.884;2022-10-16T05:48:43;8.33;;;2.83;;
56136;SDS011;42008;52.934;5.884;2022-10-16T05:51:10;8.03;;;2.10;;
56136;SDS011;42008;52.934;5.884;2022-10-16T05:53:37;9.97;;;2.67;;
56136;SDS011;42008;52.934;5.884;2022-10-16T05:56:05;11.33;;;2.73;;
56136;SDS011;42008;52.934;5.884;2022-10-16T05:58:32;7.23;;;2.60;;
56136;SDS011;42008;52.934;5.884;2022-10-16T06:01:05;7.93;;;2.60;;
56136;SDS011;42008;52.934;5.884;2022-10-16T06:03:33;9.60;;;2.67;;
56136;SDS011;42008;52.934;5.884;2022-10-16T06:05:59;11.80;;;2.53;;
56136;SDS011;42008;52.934;5.884;2022-10-16T06:08:31;7.03;;;2.60;;
56136;SDS011;42008;52.934;5.884;2022-10-16T06:11:01;8.60;;;2.57;;
56136;SDS011;42008;52.934;5.884;2022-10-16T06:13:31;12.67;;;3.10;;
56136;SDS011;42008;52.934;5.884;2022-10-16T06:15:58;10.43;;;3.07;;
56136;SDS011;42008;52.934;5.884;2022-10-16T06:18:25;9.37;;;2.43;;
56136;SDS011;42008;52.934;5.884;2022-10-16T06:20:51;9.20;;;2.83;;
56136;SDS011;42008;52.934;5.884;2022-10-16T06:23:17;7.20;;;2.20;;
56136;SDS011;42008;52.934;5.884;2022-10-16T06:25:42;6.33;;;2.83;;
56136;SDS011;42008;52.934;5.884;2022-10-16T06:28:08;8.43;;;2.77;;
56136;SDS011;42008;52.934;5.884;2022-10-16T06:30:34;14.10;;;2.93;;
56136;SDS011;42008;52.934;5.884;2022-10-16T06:32:59;9.23;;;2.50;;
56136;SDS011;42008;52.934;5.884;2022-10-16T06:35:25;7.90;;;3.20;;
56136;SDS011;42008;52.934;5.884;2022-10-16T06:37:52;7.93;;;2.30;;
56136;SDS011;42008;52.934;5.884;2022-10-16T06:40:18;8.23;;;2.63;;
56136;SDS011;42008;52.934;5.884;2022-10-16T06:42:43;10.30;;;2.43;;
56136;SDS011;42008;52.934;5.884;2022-10-16T06:45:10;10.30;;;2.90;;
56136;SDS011;42008;52.934;5.884;2022-10-16T06:47:35;8.83;;;3.00;;
56136;SDS011;42008;52.934;5.884;2022-10-16T06:50:01;11.30;;;2.77;;
56136;SDS011;42008;52.934;5.884;2022-10-16T06:52:28;7.83;;;2.50;;
56136;SDS011;42008;52.934;5.884;2022-10-16T06:54:54;7.40;;;2.20;;
56136;SDS011;42008;52.934;5.884;2022-10-16T06:57:19;8.87;;;2.70;;
56136;SDS011;42008;52.934;5.884;2022-10-16T06:59:45;15.70;;;3.27;;
56136;SDS011;42008;52.934;5.884;2022-10-16T07:02:11;5.07;;;2.20;;
56136;SDS011;42008;52.934;5.884;2022-10-16T07:04:36;7.20;;;2.33;;
56136;SDS011;42008;52.934;5.884;2022-10-16T07:07:02;5.40;;;1.97;;
56136;SDS011;42008;52.934;5.884;2022-10-16T07:09:28;9.70;;;2.27;;
56136;SDS011;42008;52.934;5.884;2022-10-16T07:11:53;10.07;;;2.50;;
56136;SDS011;42008;52.934;5.884;2022-10-16T07:14:19;7.13;;;2.30;;
56136;SDS011;42008;52.934;5.884;2022-10-16T07:16:46;12.60;;;2.90;;
56136;SDS011;42008;52.934;5.884;2022-10-16T07:19:12;9.53;;;2.23;;
56136;SDS011;42008;52.934;5.884;2022-10-16T07:21:40;6.87;;;1.97;;
56136;SDS011;42008;52.934;5.884;2022-10-16T07:24:10;6.57;;;2.50;;
56136;SDS011;42008;52.934;5.884;2022-10-16T07:26:38;9.27;;;2.53;;
56136;SDS011;42008;52.934;5.884;2022-10-16T07:29:11;8.03;;;2.10;;
56136;SDS011;42008;52.934;5.884;2022-10-16T07:31:38;12.07;;;2.73;;
56136;SDS011;42008;52.934;5.884;2022-10-16T07:34:04;6.57;;;1.90;;
56136;SDS011;42008;52.934;5.884;2022-10-16T07:36:30;11.53;;;2.97;;
56136;SDS011;42008;52.934;5.884;2022-10-16T07:38:56;6.97;;;1.93;;
56136;SDS011;42008;52.934;5.884;2022-10-16T07:41:22;9.73;;;2.10;;
56136;SDS011;42008;52.934;5.884;2022-10-16T07:43:48;12.70;;;2.10;;
56136;SDS011;42008;52.934;5.884;2022-10-16T07:46:15;8.70;;;2.20;;
56136;SDS011;42008;52.934;5.884;2022-10-16T07:48:42;7.80;;;2.00;;
56136;SDS011;42008;52.934;5.884;2022-10-16T07:51:13;7.30;;;1.90;;
56136;SDS011;42008;52.934;5.884;2022-10-16T07:53:41;6.50;;;1.70;;
56136;SDS011;42008;52.934;5.884;2022-10-16T07:56:07;6.33;;;1.53;;
56136;SDS011;42008;52.934;5.884;2022-10-16T07:58:33;9.47;;;1.70;;
56136;SDS011;42008;52.934;5.884;2022-10-16T08:01:05;7.23;;;1.73;;
56136;SDS011;42008;52.934;5.884;2022-10-16T08:03:33;5.07;;;1.60;;
56136;SDS011;42008;52.934;5.884;2022-10-16T08:05:59;5.50;;;1.57;;
56136;SDS011;42008;52.934;5.884;2022-10-16T08:08:25;10.63;;;1.80;;
56136;SDS011;42008;52.934;5.884;2022-10-16T08:10:51;7.00;;;2.10;;
56136;SDS011;42008;52.934;5.884;2022-10-16T08:13:17;8.23;;;2.07;;
56136;SDS011;42008;52.934;5.884;2022-10-16T08:15:43;9.17;;;1.80;;
56136;SDS011;42008;52.934;5.884;2022-10-16T08:18:10;7.97;;;2.10;;
56136;SDS011;42008;52.934;5.884;2022-10-16T08:20:37;10.93;;;2.37;;
56136;SDS011;42008;52.934;5.884;2022-10-16T08:23:02;7.70;;;1.80;;
56136;SDS011;42008;52.934;5.884;2022-10-16T08:25:28;7.60;;;2.13;;
56136;SDS011;42008;52.934;5.884;2022-10-16T08:27:54;5.73;;;1.73;;
56136;SDS011;42008;52.934;5.884;2022-10-16T08:30:21;9.40;;;1.83;;
56136;SDS011;42008;52.934;5.884;2022-10-16T08:32:47;7.53;;;1.90;;
56136;SDS011;42008;52.934;5.884;2022-10-16T08:35:13;9.30;;;1.87;;
56136;SDS011;42008;52.934;5.884;2022-10-16T08:37:40;8.23;;;2.37;;
56136;SDS011;42008;52.934;5.884;2022-10-16T08:40:06;14.20;;;2.37;;
56136;SDS011;42008;52.934;5.884;2022-10-16T08:45:58;9.88;;;2.00;;
56136;SDS011;42008;52.934;5.884;2022-10-16T08:51:20;9.63;;;2.27;;
56136;SDS011;42008;52.934;5.884;2022-10-16T08:53:53;20.53;;;2.77;;
56136;SDS011;42008;52.934;5.884;2022-10-16T08:56:30;12.70;;;2.70;;
56136;SDS011;42008;52.934;5.884;2022-10-16T08:58:57;8.20;;;1.93;;
56136;SDS011;42008;52.934;5.884;2022-10-16T09:01:24;10.10;;;2.00;;
56136;SDS011;42008;52.934;5.884;2022-10-16T09:06:50;9.97;;;2.20;;
56136;SDS011;42008;52.934;5.884;2022-10-16T09:12:37;10.87;;;1.60;;
56136;SDS011;42008;52.934;5.884;2022-10-16T09:18:00;14.43;;;2.70;;
56136;SDS011;42008;52.934;5.884;2022-10-16T09:20:35;9.87;;;2.63;;
56136;SDS011;42008;52.934;5.884;2022-10-16T09:25:33;10.10;;;2.00;;
56136;SDS011;42008;52.934;5.884;2022-10-16T09:27:59;12.33;;;2.57;;
56136;SDS011;42008;52.934;5.884;2022-10-16T09:30:26;10.50;;;2.47;;
56136;SDS011;42008;52.934;5.884;2022-10-16T09:32:54;16.30;;;3.40;;
56136;SDS011;42008;52.934;5.884;2022-10-16T09:35:25;13.37;;;2.73;;
56136;SDS011;42008;52.934;5.884;2022-10-16T09:37:57;12.37;;;2.50;;
56136;SDS011;42008;52.934;5.884;2022-10-16T09:40:24;16.17;;;2.83;;
56136;SDS011;42008;52.934;5.884;2022-10-16T09:43:03;14.90;;;2.67;;
56136;SDS011;42008;52.934;5.884;2022-10-16T09:45:41;10.43;;;2.77;;
56136;SDS011;42008;52.934;5.884;2022-10-16T09:48:11;9.90;;;2.30;;
56136;SDS011;42008;52.934;5.884;2022-10-16T09:50:38;14.87;;;2.83;;
56136;SDS011;42008;52.934;5.884;2022-10-16T09:53:13;17.60;;;2.67;;
56136;SDS011;42008;52.934;5.884;2022-10-16T09:55:49;11.17;;;2.10;;
56136;SDS011;42008;52.934;5.884;2022-10-16T09:58:16;17.37;;;3.17;;
56136;SDS011;42008;52.934;5.884;2022-10-16T10:00:42;14.20;;;3.00;;
56136;SDS011;42008;52.934;5.884;2022-10-16T10:03:23;14.83;;;2.63;;
56136;SDS011;42008;52.934;5.884;2022-10-16T10:06:14;13.40;;;2.53;;
56136;SDS011;42008;52.934;5.884;2022-10-16T10:08:56;12.77;;;2.30;;
56136;SDS011;42008;52.934;5.884;2022-10-16T10:11:44;11.60;;;2.50;;
56136;SDS011;42008;52.934;5.884;2022-10-16T10:14:26;14.80;;;3.40;;
56136;SDS011;42008;52.934;5.884;2022-10-16T10:17:23;14.27;;;2.53;;
56136;SDS011;42008;52.934;5.884;2022-10-16T10:19:52;14.17;;;2.90;;
56136;SDS011;42008;52.934;5.884;2022-10-16T10:25:24;18.60;;;3.10;;
56136;SDS011;42008;52.934;5.884;2022-10-16T10:41:09;16.57;;;2.60;;
56136;SDS011;42008;52.934;5.884;2022-10-16T10:57:22;15.53;;;3.23;;
56136;SDS011;42008;52.934;5.884;2022-10-16T11:05:38;12.77;;;2.67;;
56136;SDS011;42008;52.934;5.884;2022-10-16T11:08:07;14.53;;;3.00;;
56136;SDS011;42008;52.934;5.884;2022-10-16T11:10:42;13.47;;;2.53;;
56136;SDS011;42008;52.934;5.884;2022-10-16T11:13:14;16.57;;;3.47;;
56136;SDS011;42008;52.934;5.884;2022-10-16T11:15:47;16.83;;;3.20;;
56136;SDS011;42008;52.934;5.884;2022-10-16T11:18:18;13.73;;;2.73;;
56136;SDS011;42008;52.934;5.884;2022-10-16T11:21:08;17.67;;;3.37;;
56136;SDS011;42008;52.934;5.884;2022-10-16T11:23:39;15.40;;;3.10;;
56136;SDS011;42008;52.934;5.884;2022-10-16T11:26:19;15.50;;;2.73;;
56136;SDS011;42008;52.934;5.884;2022-10-16T11:28:49;14.07;;;2.40;;
56136;SDS011;42008;52.934;5.884;2022-10-16T11:31:24;14.87;;;2.87;;
56136;SDS011;42008;52.934;5.884;2022-10-16T11:34:03;13.03;;;2.87;;
56136;SDS011;42008;52.934;5.884;2022-10-16T11:36:50;17.97;;;3.77;;
56136;SDS011;42008;52.934;5.884;2022-10-16T11:39:31;21.30;;;3.97;;
56136;SDS011;42008;52.934;5.884;2022-10-16T11:42:00;12.60;;;2.70;;
56136;SDS011;42008;52.934;5.884;2022-10-16T11:47:28;14.37;;;3.13;;
56136;SDS011;42008;52.934;5.884;2022-10-16T11:50:06;16.93;;;3.20;;
56136;SDS011;42008;52.934;5.884;2022-10-16T11:55:24;18.30;;;4.00;;
56136;SDS011;42008;52.934;5.884;2022-10-16T11:58:04;16.43;;;3.20;;
56136;SDS011;42008;52.934;5.884;2022-10-16T12:00:43;15.90;;;3.00;;
56136;SDS011;42008;52.934;5.884;2022-10-16T12:08:25;16.37;;;3.63;;
56136;SDS011;42008;52.934;5.884;2022-10-16T12:10:52;16.13;;;3.60;;
56136;SDS011;42008;52.934;5.884;2022-10-16T12:18:38;13.27;;;2.70;;
56136;SDS011;42008;52.934;5.884;2022-10-16T12:21:05;16.27;;;2.67;;
56136;SDS011;42008;52.934;5.884;2022-10-16T12:23:32;17.42;;;2.95;;
56136;SDS011;42008;52.934;5.884;2022-10-16T12:26:02;14.10;;;3.08;;
56136;SDS011;42008;52.934;5.884;2022-10-16T12:28:30;13.70;;;3.05;;
56136;SDS011;42008;52.934;5.884;2022-10-16T12:30:58;16.08;;;2.90;;
56136;SDS011;42008;52.934;5.884;2022-10-16T12:33:30;16.00;;;3.35;;
56136;SDS011;42008;52.934;5.884;2022-10-16T12:36:00;17.60;;;3.55;;
56136;SDS011;42008;52.934;5.884;2022-10-16T12:38:36;15.32;;;3.20;;
56136;SDS011;42008;52.934;5.884;2022-10-16T12:43:55;18.63;;;3.70;;
56136;SDS011;42008;52.934;5.884;2022-10-16T12:48:49;18.70;;;3.50;;
56136;SDS011;42008;52.934;5.884;2022-10-16T12:54:00;16.27;;;3.33;;
56136;SDS011;42008;52.934;5.884;2022-10-16T12:59:03;19.77;;;3.40;;
56136;SDS011;42008;52.934;5.884;2022-10-16T13:02:00;16.05;;;3.33;;
56136;SDS011;42008;52.934;5.884;2022-10-16T13:15:25;18.90;;;3.80;;
56136;SDS011;42008;52.934;5.884;2022-10-16T13:18:27;17.48;;;3.65;;
56136;SDS011;42008;52.934;5.884;2022-10-16T13:21:18;15.10;;;3.08;;
56136;SDS011;42008;52.934;5.884;2022-10-16T13:27:01;15.20;;;3.40;;
56136;SDS011;42008;52.934;5.884;2022-10-16T13:29:35;14.03;;;2.70;;
56136;SDS011;42008;52.934;5.884;2022-10-16T13:32:06;12.50;;;2.67;;
56136;SDS011;42008;52.934;5.884;2022-10-16T13:34:41;13.63;;;3.03;;
56136;SDS011;42008;52.934;5.884;2022-10-16T13:37:20;14.73;;;3.20;;
56136;SDS011;42008;52.934;5.884;2022-10-16T13:39:48;14.38;;;3.75;;
56136;SDS011;42008;52.934;5.884;2022-10-16T13:42:26;10.45;;;2.90;;
56136;SDS011;42008;52.934;5.884;2022-10-16T13:44:54;19.38;;;3.42;;
56136;SDS011;42008;52.934;5.884;2022-10-16T13:47:21;14.40;;;3.20;;
56136;SDS011;42008;52.934;5.884;2022-10-16T13:50:06;14.05;;;3.10;;
56136;SDS011;42008;52.934;5.884;2022-10-16T13:52:36;16.00;;;2.60;;
56136;SDS011;42008;52.934;5.884;2022-10-16T13:55:03;14.40;;;3.28;;
56136;SDS011;42008;52.934;5.884;2022-10-16T13:57:35;13.98;;;2.67;;
56136;SDS011;42008;52.934;5.884;2022-10-16T14:00:00;10.50;;;2.75;;
56136;SDS011;42008;52.934;5.884;2022-10-16T14:02:27;14.13;;;3.47;;
56136;SDS011;42008;52.934;5.884;2022-10-16T14:04:57;12.07;;;2.75;;
56136;SDS011;42008;52.934;5.884;2022-10-16T14:07:27;14.57;;;2.90;;
56136;SDS011;42008;52.934;5.884;2022-10-16T14:09:54;15.63;;;2.83;;
56136;SDS011;42008;52.934;5.884;2022-10-16T14:12:21;13.50;;;3.08;;
56136;SDS011;42008;52.934;5.884;2022-10-16T14:14:49;14.35;;;3.03;;
56136;SDS011;42008;52.934;5.884;2022-10-16T14:17:26;18.80;;;3.33;;
56136;SDS011;42008;52.934;5.884;2022-10-16T14:24:55;14.20;;;3.00;;
56136;SDS011;42008;52.934;5.884;2022-10-16T14:27:32;15.38;;;3.33;;
56136;SDS011;42008;52.934;5.884;2022-10-16T14:30:33;17.33;;;3.45;;
56136;SDS011;42008;52.934;5.884;2022-10-16T14:32:55;13.57;;;2.55;;
56136;SDS011;42008;52.934;5.884;2022-10-16T14:35:31;15.82;;;3.03;;
56136;SDS011;42008;52.934;5.884;2022-10-16T14:37:57;17.85;;;3.53;;
56136;SDS011;42008;52.934;5.884;2022-10-16T14:40:32;15.15;;;2.80;;
56136;SDS011;42008;52.934;5.884;2022-10-16T14:43:00;15.10;;;2.88;;
56136;SDS011;42008;52.934;5.884;2022-10-16T14:45:28;19.27;;;3.10;;
56136;SDS011;42008;52.934;5.884;2022-10-16T14:47:57;21.85;;;3.15;;
56136;SDS011;42008;52.934;5.884;2022-10-16T14:50:25;14.95;;;2.90;;
56136;SDS011;42008;52.934;5.884;2022-10-16T14:52:50;17.38;;;2.67;;
56136;SDS011;42008;52.934;5.884;2022-10-16T14:55:16;16.42;;;3.20;;
56136;SDS011;42008;52.934;5.884;2022-10-16T14:57:42;17.75;;;2.90;;
56136;SDS011;42008;52.934;5.884;2022-10-16T15:00:14;18.15;;;3.85;;
56136;SDS011;42008;52.934;5.884;2022-10-16T15:02:48;11.43;;;2.47;;
56136;SDS011;42008;52.934;5.884;2022-10-16T15:07:39;17.53;;;3.00;;
56136;SDS011;42008;52.934;5.884;2022-10-16T15:10:05;15.38;;;3.30;;
56136;SDS011;42008;52.934;5.884;2022-10-16T15:12:31;13.48;;;2.80;;
56136;SDS011;42008;52.934;5.884;2022-10-16T15:14:57;16.80;;;2.90;;
56136;SDS011;42008;52.934;5.884;2022-10-16T15:17:23;17.53;;;3.10;;
56136;SDS011;42008;52.934;5.884;2022-10-16T15:19:48;16.65;;;2.97;;
56136;SDS011;42008;52.934;5.884;2022-10-16T15:22:14;17.03;;;3.07;;
56136;SDS011;42008;52.934;5.884;2022-10-16T15:24:40;16.27;;;3.00;;
56136;SDS011;42008;52.934;5.884;2022-10-16T15:27:05;14.63;;;3.10;;
56136;SDS011;42008;52.934;5.884;2022-10-16T15:29:31;16.10;;;3.07;;
56136;SDS011;42008;52.934;5.884;2022-10-16T15:31:56;16.10;;;3.33;;
56136;SDS011;42008;52.934;5.884;2022-10-16T15:34:22;16.30;;;3.37;;
56136;SDS011;42008;52.934;5.884;2022-10-16T15:36:47;14.67;;;3.20;;
56136;SDS011;42008;52.934;5.884;2022-10-16T15:39:14;14.30;;;2.80;;
56136;SDS011;42008;52.934;5.884;2022-10-16T15:41:42;19.83;;;3.03;;
56136;SDS011;42008;52.934;5.884;2022-10-16T15:44:10;24.30;;;3.40;;
56136;SDS011;42008;52.934;5.884;2022-10-16T15:46:35;22.13;;;3.10;;
56136;SDS011;42008;52.934;5.884;2022-10-16T15:49:02;15.50;;;2.73;;
56136;SDS011;42008;52.934;5.884;2022-10-16T15:51:28;18.80;;;3.20;;
56136;SDS011;42008;52.934;5.884;2022-10-16T15:53:57;18.93;;;3.73;;
56136;SDS011;42008;52.934;5.884;2022-10-16T15:56:24;22.57;;;3.20;;
56136;SDS011;42008;52.934;5.884;2022-10-16T15:58:51;19.93;;;3.73;;
56136;SDS011;42008;52.934;5.884;2022-10-16T16:01:18;18.60;;;3.90;;
56136;SDS011;42008;52.934;5.884;2022-10-16T16:03:44;14.37;;;2.60;;
56136;SDS011;42008;52.934;5.884;2022-10-16T16:06:10;15.70;;;3.20;;
56136;SDS011;42008;52.934;5.884;2022-10-16T16:08:37;13.43;;;2.60;;
56136;SDS011;42008;52.934;5.884;2022-10-16T16:11:07;13.80;;;3.00;;
56136;SDS011;42008;52.934;5.884;2022-10-16T16:13:34;17.37;;;3.00;;
56136;SDS011;42008;52.934;5.884;2022-10-16T16:16:00;16.60;;;3.40;;
56136;SDS011;42008;52.934;5.884;2022-10-16T16:18:25;13.77;;;2.90;;
56136;SDS011;42008;52.934;5.884;2022-10-16T16:20:53;19.50;;;2.73;;
56136;SDS011;42008;52.934;5.884;2022-10-16T16:23:19;16.50;;;2.50;;
56136;SDS011;42008;52.934;5.884;2022-10-16T16:25:45;19.30;;;2.87;;
56136;SDS011;42008;52.934;5.884;2022-10-16T16:28:36;12.80;;;2.30;;
56136;SDS011;42008;52.934;5.884;2022-10-16T16:31:03;12.60;;;2.43;;
56136;SDS011;42008;52.934;5.884;2022-10-16T16:33:28;26.53;;;3.87;;
56136;SDS011;42008;52.934;5.884;2022-10-16T16:35:56;20.20;;;3.70;;
56136;SDS011;42008;52.934;5.884;2022-10-16T16:38:23;27.53;;;3.70;;
56136;SDS011;42008;52.934;5.884;2022-10-16T16:40:48;17.50;;;3.17;;
56136;SDS011;42008;52.934;5.884;2022-10-16T16:43:14;19.67;;;2.67;;
56136;SDS011;42008;52.934;5.884;2022-10-16T16:45:39;13.63;;;2.53;;
56136;SDS011;42008;52.934;5.884;2022-10-16T16:48:05;13.20;;;2.30;;